sensor_id;sensor_type;location;lat;lon;timestamp;P1;durP1;ratioP1;P2;durP2;ratioP2
72156;SDS011;60035;52.122;5.406;2022-10-31T00:01:19;15.02;;;6.45;;
72156;SDS011;60035;52.122;5.406;2022-10-31T00:03:57;13.98;;;6.43;;
72156;SDS011;60035;52.122;5.406;2022-10-31T00:06:23;16.08;;;6.13;;
72156;SDS011;60035;52.122;5.406;2022-10-31T00:08:57;15.32;;;6.45;;
72156;SDS011;60035;52.122;5.406;2022-10-31T00:11:26;15.82;;;6.88;;
72156;SDS011;60035;52.122;5.406;2022-10-31T00:13:52;16.30;;;6.60;;
72156;SDS011;60035;52.122;5.406;2022-10-31T00:16:20;15.80;;;6.80;;
72156;SDS011;60035;52.122;5.406;2022-10-31T00:18:54;13.38;;;6.57;;
72156;SDS011;60035;52.122;5.406;2022-10-31T00:21:23;12.05;;;5.93;;
72156;SDS011;60035;52.122;5.406;2022-10-31T00:23:50;12.82;;;5.93;;
72156;SDS011;60035;52.122;5.406;2022-10-31T00:26:18;12.73;;;5.72;;
72156;SDS011;60035;52.122;5.406;2022-10-31T00:28:45;15.38;;;5.65;;
72156;SDS011;60035;52.122;5.406;2022-10-31T00:31:11;12.75;;;5.63;;
72156;SDS011;60035;52.122;5.406;2022-10-31T00:33:39;11.07;;;5.50;;
72156;SDS011;60035;52.122;5.406;2022-10-31T00:36:07;12.70;;;5.78;;
72156;SDS011;60035;52.122;5.406;2022-10-31T00:38:36;12.15;;;5.32;;
72156;SDS011;60035;52.122;5.406;2022-10-31T00:41:03;13.35;;;6.07;;
72156;SDS011;60035;52.122;5.406;2022-10-31T00:43:30;17.02;;;5.85;;
72156;SDS011;60035;52.122;5.406;2022-10-31T00:45:56;12.75;;;5.85;;
72156;SDS011;60035;52.122;5.406;2022-10-31T00:48:22;14.15;;;6.85;;
72156;SDS011;60035;52.122;5.406;2022-10-31T00:50:49;15.82;;;6.43;;
72156;SDS011;60035;52.122;5.406;2022-10-31T00:53:15;17.10;;;6.80;;
72156;SDS011;60035;52.122;5.406;2022-10-31T00:55:41;16.55;;;6.05;;
72156;SDS011;60035;52.122;5.406;2022-10-31T00:58:09;14.50;;;6.93;;
72156;SDS011;60035;52.122;5.406;2022-10-31T01:00:36;14.55;;;6.53;;
72156;SDS011;60035;52.122;5.406;2022-10-31T01:03:02;17.02;;;5.82;;
72156;SDS011;60035;52.122;5.406;2022-10-31T01:05:29;14.95;;;6.63;;
72156;SDS011;60035;52.122;5.406;2022-10-31T01:07:55;15.15;;;6.30;;
72156;SDS011;60035;52.122;5.406;2022-10-31T01:10:22;14.23;;;5.90;;
72156;SDS011;60035;52.122;5.406;2022-10-31T01:12:48;15.75;;;5.78;;
72156;SDS011;60035;52.122;5.406;2022-10-31T01:15:16;15.00;;;5.93;;
72156;SDS011;60035;52.122;5.406;2022-10-31T01:17:45;12.52;;;5.80;;
72156;SDS011;60035;52.122;5.406;2022-10-31T01:20:12;11.75;;;5.65;;
72156;SDS011;60035;52.122;5.406;2022-10-31T01:22:40;11.00;;;5.43;;
72156;SDS011;60035;52.122;5.406;2022-10-31T01:25:07;12.40;;;5.43;;
72156;SDS011;60035;52.122;5.406;2022-10-31T01:27:34;12.73;;;5.22;;
72156;SDS011;60035;52.122;5.406;2022-10-31T01:30:01;12.07;;;5.25;;
72156;SDS011;60035;52.122;5.406;2022-10-31T01:32:28;11.52;;;5.15;;
72156;SDS011;60035;52.122;5.406;2022-10-31T01:34:57;12.82;;;5.68;;
72156;SDS011;60035;52.122;5.406;2022-10-31T01:37:23;13.35;;;6.00;;
72156;SDS011;60035;52.122;5.406;2022-10-31T01:39:50;12.13;;;5.68;;
72156;SDS011;60035;52.122;5.406;2022-10-31T01:42:19;13.77;;;6.35;;
72156;SDS011;60035;52.122;5.406;2022-10-31T01:44:54;14.13;;;6.20;;
72156;SDS011;60035;52.122;5.406;2022-10-31T01:47:27;11.93;;;6.22;;
72156;SDS011;60035;52.122;5.406;2022-10-31T01:50:10;15.55;;;5.57;;
72156;SDS011;60035;52.122;5.406;2022-10-31T01:52:45;12.07;;;5.88;;
72156;SDS011;60035;52.122;5.406;2022-10-31T01:57:57;13.13;;;6.07;;
72156;SDS011;60035;52.122;5.406;2022-10-31T02:00:28;15.88;;;5.78;;
72156;SDS011;60035;52.122;5.406;2022-10-31T02:02:54;12.25;;;5.57;;
72156;SDS011;60035;52.122;5.406;2022-10-31T02:05:23;12.32;;;5.75;;
72156;SDS011;60035;52.122;5.406;2022-10-31T02:07:55;12.77;;;5.45;;
72156;SDS011;60035;52.122;5.406;2022-10-31T02:10:25;16.88;;;5.93;;
72156;SDS011;60035;52.122;5.406;2022-10-31T02:12:53;14.13;;;5.65;;
72156;SDS011;60035;52.122;5.406;2022-10-31T02:15:23;12.20;;;5.07;;
72156;SDS011;60035;52.122;5.406;2022-10-31T02:17:50;10.25;;;5.00;;
72156;SDS011;60035;52.122;5.406;2022-10-31T02:20:18;10.68;;;4.93;;
72156;SDS011;60035;52.122;5.406;2022-10-31T02:31:11;11.27;;;5.13;;
72156;SDS011;60035;52.122;5.406;2022-10-31T02:36:53;9.82;;;4.90;;
72156;SDS011;60035;52.122;5.406;2022-10-31T02:39:26;9.95;;;4.68;;
72156;SDS011;60035;52.122;5.406;2022-10-31T02:47:09;11.15;;;6.25;;
72156;SDS011;60035;52.122;5.406;2022-10-31T02:49:51;11.23;;;5.65;;
72156;SDS011;60035;52.122;5.406;2022-10-31T02:52:28;12.55;;;5.88;;
72156;SDS011;60035;52.122;5.406;2022-10-31T02:54:56;11.75;;;5.72;;
72156;SDS011;60035;52.122;5.406;2022-10-31T02:57:24;12.75;;;6.43;;
72156;SDS011;60035;52.122;5.406;2022-10-31T02:59:56;10.98;;;5.82;;
72156;SDS011;60035;52.122;5.406;2022-10-31T03:10:36;11.18;;;5.88;;
72156;SDS011;60035;52.122;5.406;2022-10-31T03:15:48;11.15;;;5.90;;
72156;SDS011;60035;52.122;5.406;2022-10-31T03:21:05;12.55;;;9.23;;
72156;SDS011;60035;52.122;5.406;2022-10-31T03:23:37;12.07;;;7.30;;
72156;SDS011;60035;52.122;5.406;2022-10-31T03:26:07;9.82;;;6.68;;
72156;SDS011;60035;52.122;5.406;2022-10-31T03:28:44;10.52;;;5.65;;
72156;SDS011;60035;52.122;5.406;2022-10-31T03:31:16;8.18;;;4.93;;
72156;SDS011;60035;52.122;5.406;2022-10-31T03:33:44;9.45;;;5.47;;
72156;SDS011;60035;52.122;5.406;2022-10-31T03:36:13;9.13;;;5.85;;
72156;SDS011;60035;52.122;5.406;2022-10-31T03:38:42;10.65;;;6.13;;
72156;SDS011;60035;52.122;5.406;2022-10-31T03:41:13;10.65;;;5.10;;
72156;SDS011;60035;52.122;5.406;2022-10-31T03:43:46;8.73;;;4.65;;
72156;SDS011;60035;52.122;5.406;2022-10-31T03:46:19;9.50;;;5.10;;
72156;SDS011;60035;52.122;5.406;2022-10-31T03:48:45;11.32;;;5.47;;
72156;SDS011;60035;52.122;5.406;2022-10-31T03:59:17;8.57;;;4.25;;
72156;SDS011;60035;52.122;5.406;2022-10-31T04:01:50;8.52;;;4.43;;
72156;SDS011;60035;52.122;5.406;2022-10-31T04:04:23;8.80;;;4.10;;
72156;SDS011;60035;52.122;5.406;2022-10-31T04:06:50;7.65;;;3.70;;
72156;SDS011;60035;52.122;5.406;2022-10-31T04:09:20;6.45;;;2.63;;
72156;SDS011;60035;52.122;5.406;2022-10-31T04:11:48;7.20;;;3.05;;
72156;SDS011;60035;52.122;5.406;2022-10-31T04:14:18;6.55;;;3.17;;
72156;SDS011;60035;52.122;5.406;2022-10-31T04:16:45;6.38;;;3.05;;
72156;SDS011;60035;52.122;5.406;2022-10-31T04:19:12;7.05;;;3.30;;
72156;SDS011;60035;52.122;5.406;2022-10-31T04:21:38;7.75;;;3.45;;
72156;SDS011;60035;52.122;5.406;2022-10-31T04:24:07;9.30;;;4.78;;
72156;SDS011;60035;52.122;5.406;2022-10-31T04:26:33;10.05;;;4.43;;
72156;SDS011;60035;52.122;5.406;2022-10-31T04:29:00;10.32;;;4.18;;
72156;SDS011;60035;52.122;5.406;2022-10-31T04:31:26;10.40;;;3.72;;
72156;SDS011;60035;52.122;5.406;2022-10-31T04:33:53;9.13;;;3.50;;
72156;SDS011;60035;52.122;5.406;2022-10-31T04:36:19;10.00;;;4.68;;
72156;SDS011;60035;52.122;5.406;2022-10-31T04:38:46;9.35;;;4.35;;
72156;SDS011;60035;52.122;5.406;2022-10-31T04:41:12;12.85;;;4.68;;
72156;SDS011;60035;52.122;5.406;2022-10-31T04:43:39;12.48;;;4.35;;
72156;SDS011;60035;52.122;5.406;2022-10-31T04:46:05;11.38;;;4.55;;
72156;SDS011;60035;52.122;5.406;2022-10-31T04:48:32;8.00;;;3.63;;
72156;SDS011;60035;52.122;5.406;2022-10-31T04:50:59;11.60;;;3.92;;
72156;SDS011;60035;52.122;5.406;2022-10-31T04:53:26;9.98;;;4.35;;
72156;SDS011;60035;52.122;5.406;2022-10-31T04:55:53;8.05;;;3.38;;
72156;SDS011;60035;52.122;5.406;2022-10-31T04:58:19;9.50;;;3.83;;
72156;SDS011;60035;52.122;5.406;2022-10-31T05:00:46;9.95;;;4.15;;
72156;SDS011;60035;52.122;5.406;2022-10-31T05:03:12;9.85;;;3.83;;
72156;SDS011;60035;52.122;5.406;2022-10-31T05:05:39;8.90;;;3.55;;
72156;SDS011;60035;52.122;5.406;2022-10-31T05:08:05;9.05;;;3.80;;
72156;SDS011;60035;52.122;5.406;2022-10-31T05:10:34;8.82;;;3.83;;
72156;SDS011;60035;52.122;5.406;2022-10-31T05:13:01;8.73;;;3.95;;
72156;SDS011;60035;52.122;5.406;2022-10-31T05:15:30;8.77;;;3.50;;
72156;SDS011;60035;52.122;5.406;2022-10-31T05:17:56;10.18;;;4.03;;
72156;SDS011;60035;52.122;5.406;2022-10-31T05:20:25;10.88;;;3.78;;
72156;SDS011;60035;52.122;5.406;2022-10-31T05:22:57;9.90;;;3.47;;
72156;SDS011;60035;52.122;5.406;2022-10-31T05:25:24;9.70;;;3.83;;
72156;SDS011;60035;52.122;5.406;2022-10-31T05:27:53;9.88;;;3.83;;
72156;SDS011;60035;52.122;5.406;2022-10-31T05:30:22;9.30;;;3.38;;
72156;SDS011;60035;52.122;5.406;2022-10-31T05:35:19;12.27;;;4.10;;
72156;SDS011;60035;52.122;5.406;2022-10-31T05:37:50;9.63;;;3.75;;
72156;SDS011;60035;52.122;5.406;2022-10-31T05:40:18;35.35;;;5.32;;
72156;SDS011;60035;52.122;5.406;2022-10-31T05:42:46;14.82;;;4.50;;
72156;SDS011;60035;52.122;5.406;2022-10-31T05:45:14;25.23;;;5.13;;
72156;SDS011;60035;52.122;5.406;2022-10-31T05:47:41;27.58;;;5.32;;
72156;SDS011;60035;52.122;5.406;2022-10-31T05:50:09;21.75;;;5.82;;
72156;SDS011;60035;52.122;5.406;2022-10-31T05:52:36;34.55;;;5.93;;
72156;SDS011;60035;52.122;5.406;2022-10-31T05:55:03;43.67;;;5.78;;
72156;SDS011;60035;52.122;5.406;2022-10-31T05:57:31;27.10;;;6.35;;
72156;SDS011;60035;52.122;5.406;2022-10-31T05:59:58;24.67;;;6.30;;
72156;SDS011;60035;52.122;5.406;2022-10-31T06:02:24;46.53;;;8.00;;
72156;SDS011;60035;52.122;5.406;2022-10-31T06:04:52;44.28;;;7.72;;
72156;SDS011;60035;52.122;5.406;2022-10-31T06:07:19;27.60;;;8.07;;
72156;SDS011;60035;52.122;5.406;2022-10-31T06:09:45;36.10;;;8.48;;
72156;SDS011;60035;52.122;5.406;2022-10-31T06:12:12;29.02;;;7.32;;
72156;SDS011;60035;52.122;5.406;2022-10-31T06:14:38;43.35;;;8.57;;
72156;SDS011;60035;52.122;5.406;2022-10-31T06:17:05;46.00;;;7.45;;
72156;SDS011;60035;52.122;5.406;2022-10-31T06:19:32;27.23;;;7.72;;
72156;SDS011;60035;52.122;5.406;2022-10-31T06:21:58;51.38;;;8.25;;
72156;SDS011;60035;52.122;5.406;2022-10-31T06:24:25;40.17;;;8.27;;
72156;SDS011;60035;52.122;5.406;2022-10-31T06:26:52;33.10;;;7.57;;
72156;SDS011;60035;52.122;5.406;2022-10-31T06:29:18;33.88;;;8.32;;
72156;SDS011;60035;52.122;5.406;2022-10-31T06:31:44;40.78;;;7.80;;
72156;SDS011;60035;52.122;5.406;2022-10-31T06:34:11;37.05;;;7.35;;
72156;SDS011;60035;52.122;5.406;2022-10-31T06:36:38;23.75;;;6.55;;
72156;SDS011;60035;52.122;5.406;2022-10-31T06:39:04;27.35;;;7.65;;
72156;SDS011;60035;52.122;5.406;2022-10-31T06:41:34;25.45;;;7.30;;
72156;SDS011;60035;52.122;5.406;2022-10-31T06:44:02;20.25;;;7.07;;
72156;SDS011;60035;52.122;5.406;2022-10-31T06:46:34;51.17;;;8.00;;
72156;SDS011;60035;52.122;5.406;2022-10-31T06:49:01;31.08;;;7.45;;
72156;SDS011;60035;52.122;5.406;2022-10-31T06:51:27;40.05;;;8.25;;
72156;SDS011;60035;52.122;5.406;2022-10-31T06:53:53;38.50;;;8.45;;
72156;SDS011;60035;52.122;5.406;2022-10-31T06:56:20;33.47;;;7.55;;
72156;SDS011;60035;52.122;5.406;2022-10-31T06:58:46;39.05;;;8.20;;
72156;SDS011;60035;52.122;5.406;2022-10-31T07:01:13;28.48;;;7.88;;
72156;SDS011;60035;52.122;5.406;2022-10-31T07:03:39;49.10;;;8.23;;
72156;SDS011;60035;52.122;5.406;2022-10-31T07:06:06;31.05;;;7.95;;
72156;SDS011;60035;52.122;5.406;2022-10-31T07:08:32;28.05;;;7.97;;
72156;SDS011;60035;52.122;5.406;2022-10-31T07:10:59;19.67;;;7.05;;
72156;SDS011;60035;52.122;5.406;2022-10-31T07:13:25;24.65;;;6.55;;
72156;SDS011;60035;52.122;5.406;2022-10-31T07:15:52;42.63;;;7.72;;
72156;SDS011;60035;52.122;5.406;2022-10-31T07:18:20;26.17;;;6.63;;
72156;SDS011;60035;52.122;5.406;2022-10-31T07:20:47;21.80;;;6.53;;
72156;SDS011;60035;52.122;5.406;2022-10-31T07:23:14;26.02;;;6.53;;
72156;SDS011;60035;52.122;5.406;2022-10-31T07:25:40;36.15;;;6.90;;
72156;SDS011;60035;52.122;5.406;2022-10-31T07:28:07;23.63;;;7.15;;
72156;SDS011;60035;52.122;5.406;2022-10-31T07:30:35;17.80;;;6.22;;
72156;SDS011;60035;52.122;5.406;2022-10-31T07:33:01;28.30;;;6.72;;
72156;SDS011;60035;52.122;5.406;2022-10-31T07:35:28;15.65;;;6.18;;
72156;SDS011;60035;52.122;5.406;2022-10-31T07:37:56;16.25;;;6.05;;
72156;SDS011;60035;52.122;5.406;2022-10-31T07:40:24;19.92;;;7.00;;
72156;SDS011;60035;52.122;5.406;2022-10-31T07:42:51;17.65;;;6.63;;
72156;SDS011;60035;52.122;5.406;2022-10-31T07:45:19;21.90;;;6.82;;
72156;SDS011;60035;52.122;5.406;2022-10-31T07:47:51;20.30;;;7.10;;
72156;SDS011;60035;52.122;5.406;2022-10-31T07:50:22;19.90;;;6.88;;
72156;SDS011;60035;52.122;5.406;2022-10-31T07:53:04;13.32;;;6.43;;
72156;SDS011;60035;52.122;5.406;2022-10-31T07:55:33;22.17;;;7.45;;
72156;SDS011;60035;52.122;5.406;2022-10-31T07:58:01;31.63;;;8.38;;
72156;SDS011;60035;52.122;5.406;2022-10-31T08:00:36;19.00;;;7.53;;
72156;SDS011;60035;52.122;5.406;2022-10-31T08:03:05;38.72;;;7.78;;
72156;SDS011;60035;52.122;5.406;2022-10-31T08:05:34;21.83;;;7.53;;
72156;SDS011;60035;52.122;5.406;2022-10-31T08:08:02;22.63;;;7.75;;
72156;SDS011;60035;52.122;5.406;2022-10-31T08:10:30;21.55;;;8.05;;
72156;SDS011;60035;52.122;5.406;2022-10-31T08:12:58;22.30;;;8.13;;
72156;SDS011;60035;52.122;5.406;2022-10-31T08:15:26;49.90;;;9.10;;
72156;SDS011;60035;52.122;5.406;2022-10-31T08:17:53;34.28;;;7.95;;
72156;SDS011;60035;52.122;5.406;2022-10-31T08:20:20;16.45;;;7.93;;
72156;SDS011;60035;52.122;5.406;2022-10-31T08:22:57;31.10;;;8.35;;
72156;SDS011;60035;52.122;5.406;2022-10-31T08:25:24;22.80;;;8.02;;
72156;SDS011;60035;52.122;5.406;2022-10-31T08:27:56;35.08;;;8.90;;
72156;SDS011;60035;52.122;5.406;2022-10-31T08:30:27;27.63;;;8.10;;
72156;SDS011;60035;52.122;5.406;2022-10-31T08:33:07;24.48;;;8.40;;
72156;SDS011;60035;52.122;5.406;2022-10-31T08:35:41;25.20;;;8.93;;
72156;SDS011;60035;52.122;5.406;2022-10-31T08:38:09;18.13;;;9.02;;
72156;SDS011;60035;52.122;5.406;2022-10-31T08:40:37;18.90;;;9.35;;
72156;SDS011;60035;52.122;5.406;2022-10-31T08:43:23;18.35;;;8.68;;
72156;SDS011;60035;52.122;5.406;2022-10-31T08:45:49;17.23;;;9.13;;
72156;SDS011;60035;52.122;5.406;2022-10-31T08:48:16;15.68;;;8.23;;
72156;SDS011;60035;52.122;5.406;2022-10-31T08:50:48;19.20;;;10.15;;
72156;SDS011;60035;52.122;5.406;2022-10-31T08:53:15;18.77;;;9.43;;
72156;SDS011;60035;52.122;5.406;2022-10-31T08:55:44;18.27;;;9.75;;
72156;SDS011;60035;52.122;5.406;2022-10-31T08:58:13;19.75;;;9.82;;
72156;SDS011;60035;52.122;5.406;2022-10-31T09:00:42;18.88;;;10.50;;
72156;SDS011;60035;52.122;5.406;2022-10-31T09:03:11;19.40;;;10.25;;
72156;SDS011;60035;52.122;5.406;2022-10-31T09:05:39;19.88;;;10.60;;
72156;SDS011;60035;52.122;5.406;2022-10-31T09:08:06;19.90;;;10.45;;
72156;SDS011;60035;52.122;5.406;2022-10-31T09:10:41;20.83;;;10.15;;
72156;SDS011;60035;52.122;5.406;2022-10-31T09:13:10;21.15;;;10.15;;
72156;SDS011;60035;52.122;5.406;2022-10-31T09:15:39;19.45;;;9.98;;
72156;SDS011;60035;52.122;5.406;2022-10-31T09:18:07;18.25;;;10.30;;
72156;SDS011;60035;52.122;5.406;2022-10-31T09:20:35;22.25;;;12.00;;
72156;SDS011;60035;52.122;5.406;2022-10-31T09:23:06;20.35;;;11.90;;
72156;SDS011;60035;52.122;5.406;2022-10-31T09:25:36;22.67;;;11.38;;
72156;SDS011;60035;52.122;5.406;2022-10-31T09:28:03;24.08;;;11.40;;
72156;SDS011;60035;52.122;5.406;2022-10-31T09:30:32;21.70;;;11.52;;
72156;SDS011;60035;52.122;5.406;2022-10-31T09:33:00;21.15;;;10.82;;
72156;SDS011;60035;52.122;5.406;2022-10-31T09:35:36;22.60;;;12.10;;
72156;SDS011;60035;52.122;5.406;2022-10-31T09:38:14;24.88;;;12.55;;
72156;SDS011;60035;52.122;5.406;2022-10-31T09:40:46;22.50;;;12.75;;
72156;SDS011;60035;52.122;5.406;2022-10-31T09:47:26;22.55;;;12.65;;
72156;SDS011;60035;52.122;5.406;2022-10-31T09:50:17;24.38;;;12.20;;
72156;SDS011;60035;52.122;5.406;2022-10-31T09:52:56;23.98;;;12.38;;
72156;SDS011;60035;52.122;5.406;2022-10-31T09:55:36;25.48;;;12.65;;
72156;SDS011;60035;52.122;5.406;2022-10-31T09:58:05;25.02;;;13.52;;
72156;SDS011;60035;52.122;5.406;2022-10-31T10:00:39;23.15;;;12.52;;
72156;SDS011;60035;52.122;5.406;2022-10-31T10:08:21;24.38;;;13.65;;
72156;SDS011;60035;52.122;5.406;2022-10-31T10:30:26;30.00;;;12.82;;
72156;SDS011;60035;52.122;5.406;2022-10-31T10:33:24;24.55;;;11.48;;
72156;SDS011;60035;52.122;5.406;2022-10-31T10:35:59;25.50;;;12.25;;
72156;SDS011;60035;52.122;5.406;2022-10-31T10:41:21;25.60;;;11.88;;
72156;SDS011;60035;52.122;5.406;2022-10-31T10:43:49;20.42;;;10.07;;
72156;SDS011;60035;52.122;5.406;2022-10-31T10:46:18;18.98;;;10.10;;
72156;SDS011;60035;52.122;5.406;2022-10-31T11:00:30;23.60;;;9.32;;
72156;SDS011;60035;52.122;5.406;2022-10-31T11:03:06;21.63;;;9.23;;
72156;SDS011;60035;52.122;5.406;2022-10-31T11:05:38;23.13;;;10.23;;
72156;SDS011;60035;52.122;5.406;2022-10-31T11:08:27;20.05;;;9.23;;
72156;SDS011;60035;52.122;5.406;2022-10-31T11:11:19;20.63;;;9.40;;
72156;SDS011;60035;52.122;5.406;2022-10-31T11:13:54;21.67;;;8.80;;
72156;SDS011;60035;52.122;5.406;2022-10-31T11:16:30;21.25;;;9.68;;
72156;SDS011;60035;52.122;5.406;2022-10-31T11:19:07;18.75;;;8.77;;
72156;SDS011;60035;52.122;5.406;2022-10-31T11:21:48;18.23;;;8.70;;
72156;SDS011;60035;52.122;5.406;2022-10-31T11:24:23;20.02;;;8.35;;
72156;SDS011;60035;52.122;5.406;2022-10-31T11:27:02;21.67;;;9.35;;
72156;SDS011;60035;52.122;5.406;2022-10-31T11:29:37;22.67;;;9.43;;
72156;SDS011;60035;52.122;5.406;2022-10-31T11:32:03;19.20;;;9.57;;
72156;SDS011;60035;52.122;5.406;2022-10-31T11:37:04;21.50;;;9.40;;
72156;SDS011;60035;52.122;5.406;2022-10-31T11:39:40;20.85;;;9.63;;
72156;SDS011;60035;52.122;5.406;2022-10-31T11:42:12;22.15;;;10.00;;
72156;SDS011;60035;52.122;5.406;2022-10-31T11:44:41;25.13;;;11.32;;
72156;SDS011;60035;52.122;5.406;2022-10-31T11:47:11;24.98;;;11.25;;
72156;SDS011;60035;52.122;5.406;2022-10-31T11:49:41;22.90;;;11.30;;
72156;SDS011;60035;52.122;5.406;2022-10-31T11:52:13;27.73;;;12.00;;
72156;SDS011;60035;52.122;5.406;2022-10-31T11:54:47;26.88;;;12.00;;
72156;SDS011;60035;52.122;5.406;2022-10-31T11:59:58;24.00;;;10.80;;
72156;SDS011;60035;52.122;5.406;2022-10-31T12:02:27;23.77;;;11.63;;
72156;SDS011;60035;52.122;5.406;2022-10-31T12:04:59;26.33;;;11.43;;
72156;SDS011;60035;52.122;5.406;2022-10-31T12:07:32;29.05;;;12.05;;
72156;SDS011;60035;52.122;5.406;2022-10-31T12:09:59;30.15;;;11.93;;
72156;SDS011;60035;52.122;5.406;2022-10-31T12:15:41;29.40;;;11.90;;
72156;SDS011;60035;52.122;5.406;2022-10-31T12:18:28;28.25;;;12.63;;
72156;SDS011;60035;52.122;5.406;2022-10-31T12:21:10;29.70;;;11.60;;
72156;SDS011;60035;52.122;5.406;2022-10-31T12:23:55;29.13;;;12.65;;
72156;SDS011;60035;52.122;5.406;2022-10-31T12:26:39;28.90;;;12.25;;
72156;SDS011;60035;52.122;5.406;2022-10-31T12:43:13;31.23;;;13.07;;
72156;SDS011;60035;52.122;5.406;2022-10-31T12:45:56;31.75;;;12.98;;
72156;SDS011;60035;52.122;5.406;2022-10-31T12:53:52;29.77;;;13.02;;
72156;SDS011;60035;52.122;5.406;2022-10-31T12:56:37;30.48;;;12.55;;
72156;SDS011;60035;52.122;5.406;2022-10-31T12:59:36;32.03;;;13.02;;
72156;SDS011;60035;52.122;5.406;2022-10-31T13:04:46;27.58;;;12.13;;
72156;SDS011;60035;52.122;5.406;2022-10-31T13:07:15;28.45;;;13.10;;
72156;SDS011;60035;52.122;5.406;2022-10-31T13:10:05;30.42;;;13.13;;
72156;SDS011;60035;52.122;5.406;2022-10-31T13:12:42;27.88;;;12.90;;
72156;SDS011;60035;52.122;5.406;2022-10-31T13:15:15;27.60;;;13.07;;
72156;SDS011;60035;52.122;5.406;2022-10-31T13:17:46;28.25;;;12.23;;
72156;SDS011;60035;52.122;5.406;2022-10-31T13:20:21;34.28;;;14.35;;
72156;SDS011;60035;52.122;5.406;2022-10-31T13:22:53;28.88;;;11.88;;
72156;SDS011;60035;52.122;5.406;2022-10-31T13:25:24;27.35;;;12.68;;
72156;SDS011;60035;52.122;5.406;2022-10-31T13:28:00;30.15;;;13.15;;
72156;SDS011;60035;52.122;5.406;2022-10-31T13:30:36;30.92;;;12.07;;
72156;SDS011;60035;52.122;5.406;2022-10-31T13:33:13;30.77;;;12.55;;
72156;SDS011;60035;52.122;5.406;2022-10-31T13:38:28;28.60;;;12.75;;
72156;SDS011;60035;52.122;5.406;2022-10-31T13:46:23;32.42;;;13.63;;
72156;SDS011;60035;52.122;5.406;2022-10-31T13:48:53;29.83;;;12.93;;
72156;SDS011;60035;52.122;5.406;2022-10-31T13:51:27;32.75;;;14.07;;
72156;SDS011;60035;52.122;5.406;2022-10-31T13:56:32;34.42;;;14.00;;
72156;SDS011;60035;52.122;5.406;2022-10-31T14:01:35;34.28;;;13.75;;
72156;SDS011;60035;52.122;5.406;2022-10-31T14:04:07;31.80;;;13.27;;
72156;SDS011;60035;52.122;5.406;2022-10-31T14:09:31;28.83;;;13.18;;
72156;SDS011;60035;52.122;5.406;2022-10-31T14:14:48;36.33;;;12.93;;
72156;SDS011;60035;52.122;5.406;2022-10-31T14:17:22;32.30;;;12.68;;
72156;SDS011;60035;52.122;5.406;2022-10-31T14:19:58;31.88;;;13.02;;
72156;SDS011;60035;52.122;5.406;2022-10-31T14:22:30;33.63;;;13.93;;
72156;SDS011;60035;52.122;5.406;2022-10-31T14:25:00;27.83;;;12.80;;
72156;SDS011;60035;52.122;5.406;2022-10-31T14:29:54;33.47;;;13.55;;
72156;SDS011;60035;52.122;5.406;2022-10-31T14:32:23;29.13;;;12.98;;
72156;SDS011;60035;52.122;5.406;2022-10-31T14:34:52;28.88;;;13.25;;
72156;SDS011;60035;52.122;5.406;2022-10-31T14:48:42;31.48;;;13.15;;
72156;SDS011;60035;52.122;5.406;2022-10-31T14:51:22;29.30;;;13.13;;
72156;SDS011;60035;52.122;5.406;2022-10-31T14:53:51;30.85;;;13.23;;
72156;SDS011;60035;52.122;5.406;2022-10-31T14:56:25;32.78;;;13.38;;
72156;SDS011;60035;52.122;5.406;2022-10-31T14:58:54;29.15;;;12.50;;
72156;SDS011;60035;52.122;5.406;2022-10-31T15:01:31;31.92;;;14.13;;
72156;SDS011;60035;52.122;5.406;2022-10-31T15:04:03;30.13;;;13.35;;
72156;SDS011;60035;52.122;5.406;2022-10-31T15:06:58;30.05;;;13.30;;
72156;SDS011;60035;52.122;5.406;2022-10-31T15:09:56;30.20;;;13.40;;
72156;SDS011;60035;52.122;5.406;2022-10-31T15:14:57;28.83;;;12.73;;
72156;SDS011;60035;52.122;5.406;2022-10-31T15:17:41;34.35;;;14.00;;
72156;SDS011;60035;52.122;5.406;2022-10-31T15:20:16;34.75;;;13.27;;
72156;SDS011;60035;52.122;5.406;2022-10-31T15:22:45;30.38;;;13.45;;
72156;SDS011;60035;52.122;5.406;2022-10-31T15:25:15;28.10;;;12.48;;
72156;SDS011;60035;52.122;5.406;2022-10-31T15:27:45;31.65;;;13.10;;
72156;SDS011;60035;52.122;5.406;2022-10-31T15:30:24;31.77;;;12.57;;
72156;SDS011;60035;52.122;5.406;2022-10-31T15:32:52;32.15;;;13.43;;
72156;SDS011;60035;52.122;5.406;2022-10-31T15:35:25;31.42;;;12.90;;
72156;SDS011;60035;52.122;5.406;2022-10-31T15:37:54;37.17;;;13.23;;
72156;SDS011;60035;52.122;5.406;2022-10-31T15:40:22;32.00;;;12.95;;
72156;SDS011;60035;52.122;5.406;2022-10-31T15:42:53;27.83;;;11.43;;
72156;SDS011;60035;52.122;5.406;2022-10-31T15:45:24;30.55;;;12.88;;
72156;SDS011;60035;52.122;5.406;2022-10-31T15:47:57;27.23;;;12.15;;
72156;SDS011;60035;52.122;5.406;2022-10-31T15:50:36;28.95;;;12.38;;
72156;SDS011;60035;52.122;5.406;2022-10-31T15:53:05;33.53;;;13.18;;
72156;SDS011;60035;52.122;5.406;2022-10-31T15:55:45;29.45;;;12.48;;
72156;SDS011;60035;52.122;5.406;2022-10-31T15:58:15;35.85;;;13.77;;
72156;SDS011;60035;52.122;5.406;2022-10-31T16:00:43;29.70;;;12.45;;
72156;SDS011;60035;52.122;5.406;2022-10-31T16:05:49;30.45;;;11.75;;
72156;SDS011;60035;52.122;5.406;2022-10-31T16:08:21;30.88;;;11.75;;
72156;SDS011;60035;52.122;5.406;2022-10-31T16:10:50;30.52;;;12.27;;
72156;SDS011;60035;52.122;5.406;2022-10-31T16:13:17;30.33;;;12.48;;
72156;SDS011;60035;52.122;5.406;2022-10-31T16:15:49;29.48;;;12.25;;
72156;SDS011;60035;52.122;5.406;2022-10-31T16:18:40;29.27;;;12.25;;
72156;SDS011;60035;52.122;5.406;2022-10-31T16:21:08;29.63;;;12.18;;
72156;SDS011;60035;52.122;5.406;2022-10-31T16:23:36;32.40;;;12.95;;
72156;SDS011;60035;52.122;5.406;2022-10-31T16:26:10;28.52;;;12.38;;
72156;SDS011;60035;52.122;5.406;2022-10-31T16:28:50;32.70;;;11.73;;
72156;SDS011;60035;52.122;5.406;2022-10-31T16:31:30;30.40;;;12.55;;
72156;SDS011;60035;52.122;5.406;2022-10-31T16:34:23;28.55;;;11.80;;
72156;SDS011;60035;52.122;5.406;2022-10-31T16:36:52;26.90;;;11.43;;
72156;SDS011;60035;52.122;5.406;2022-10-31T16:39:19;27.38;;;12.05;;
72156;SDS011;60035;52.122;5.406;2022-10-31T16:41:46;27.42;;;11.38;;
72156;SDS011;60035;52.122;5.406;2022-10-31T16:46:47;28.73;;;12.05;;
72156;SDS011;60035;52.122;5.406;2022-10-31T16:49:13;28.40;;;12.18;;
72156;SDS011;60035;52.122;5.406;2022-10-31T16:51:41;31.67;;;12.52;;
72156;SDS011;60035;52.122;5.406;2022-10-31T16:54:08;28.98;;;12.65;;
72156;SDS011;60035;52.122;5.406;2022-10-31T16:56:36;28.90;;;11.73;;
72156;SDS011;60035;52.122;5.406;2022-10-31T16:59:04;30.45;;;13.25;;
72156;SDS011;60035;52.122;5.406;2022-10-31T17:01:40;26.75;;;11.63;;
72156;SDS011;60035;52.122;5.406;2022-10-31T17:04:11;33.92;;;12.70;;
72156;SDS011;60035;52.122;5.406;2022-10-31T17:06:39;29.52;;;12.27;;
72156;SDS011;60035;52.122;5.406;2022-10-31T17:09:06;28.60;;;11.48;;
72156;SDS011;60035;52.122;5.406;2022-10-31T17:11:33;26.25;;;11.23;;
72156;SDS011;60035;52.122;5.406;2022-10-31T17:14:00;32.17;;;11.82;;
72156;SDS011;60035;52.122;5.406;2022-10-31T17:16:29;34.42;;;12.55;;
72156;SDS011;60035;52.122;5.406;2022-10-31T17:18:56;32.30;;;13.20;;
72156;SDS011;60035;52.122;5.406;2022-10-31T17:21:22;29.23;;;11.77;;
72156;SDS011;60035;52.122;5.406;2022-10-31T17:23:50;33.53;;;12.68;;
72156;SDS011;60035;52.122;5.406;2022-10-31T17:26:17;28.35;;;11.95;;
72156;SDS011;60035;52.122;5.406;2022-10-31T17:28:43;28.20;;;11.68;;